Eskişehir Air Base

LTBI · 埃斯基谢希尔省, 土耳其

罗盘
风向 的 Eskişehir Air Base 8/26
风: 2 kt, 1 beaufort


2 kt
改变
0 ft 2.000 4.000 6.000 8.000 10.000
Cloud Cloud
FEW 3.500
Cloud Cloud Cloud Cloud Cloud Cloud
BKN 10.000
METAR LTBI 020750Z VRB02KT 9999 FEW035 BKN100 13/M01 Q1013 NOSIG RMK RWY08 27004KT 210V340

METAR Eskişehir Air Base - LTBI/ESK

Eskişehir Air Base是,土耳其中的中型机场。 该机场位于纬度39,78420和经度30,58190。 该机场有一条跑道: 8/26. 本场的ICAO机场代码为LTBI。 该机场的IATA代码为ESK。 机场在Istanbul FIR中。

该航空气象观测是针对Eskişehir Air Base在2024年3月2日 10:50, 当地时间进行的。

机场观察

可变方向的风很小或没有风。

可见度为10 km 或者更多。

有几云在3.500 ft的高度 和 碎云在10.000 ft的高度。 破损或更高的上限为10.000 ft。

温度和风寒是13 °C。 露点为-1 °C,相对湿度为38%。 海平面上的气压为1013 hPa (QNH)。

白天

今天,太阳从07:28升起,在18:50降落。 这适用于Eskişehir Air Base,世界夏令时可能有所不同。 当地时间与世界标准时间之间的时差为+3 小时。 当前,没有夏令时有效。

公司介绍

我们没有关于这个机场的公司信息。

体会

到Vliegles.nl去找飞行课程,跳伞和其他飞行体验。 浏览页面,了解Eskişehir Air Base附近所有可用的活动。 你也可以使用搜索功能来寻找你所在地附近的特定飞行课程、跳伞或其他飞行体验。

跑道

Id 标题 侧风 逆风 侧风 %
8/26 090°-270° 2 kt 100 %

逆风成分最大的方向会被突出显示,并用于横风计算。 这并不一定意味着这个方向在使用。

乌云

3.500 ft FEW 几云
10.000 ft BKN 碎云

温度 & 天气

温度 13 °C
露点 -1 °C
相对湿度 38%
Kp-index 1 (0-9)

评论

RWY08 27004KT 210V340

白天

日出
07:28
中午
13:09
日落
18:50 (7:43)

小工具

你想在你的网站上有一个关于Eskişehir Air Base的当前航空天气(METAR)的小部件吗?

显示HTML代码
?>